Time;durP1;ratioP1;P1;durP2;ratioP2;P2;SDS_P1;SDS_P2;PMS_P1;PMS_P2;Temp;Humidity;BMP_temperature;BMP_pressure;BME280_temperature;BME280_humidity;BME280_pressure;Samples;Min_cycle;Max_cycle;Signal;HPM_P1;HPM_P2
2023/08/31 00:01:05;;;;;;;1.98;1.88;;;;;;;;;;5024016;28;20230;-74
2023/08/31 00:03:32;;;;;;;1.92;1.73;;;;;;;;;;5015065;28;20253;-73
2023/08/31 00:06:03;;;;;;;1.80;1.70;;;;;;;;;;5023601;28;20269;-75
2023/08/31 00:08:32;;;;;;;1.80;1.70;;;;;;;;;;5007827;28;20192;-74
2023/08/31 00:11:01;;;;;;;2.00;1.90;;;;;;;;;;5008600;28;20232;-74
2023/08/31 00:13:29;;;;;;;1.75;1.65;;;;;;;;;;5016709;28;20208;-72
2023/08/31 00:15:57;;;;;;;2.33;2.20;;;;;;;;;;5007862;28;20195;-75
2023/08/31 00:18:25;;;;;;;2.00;1.90;;;;;;;;;;5008006;28;20370;-74
2023/08/31 00:20:53;;;;;;;2.53;2.33;;;;;;;;;;5016279;28;20639;-74
2023/08/31 00:23:20;;;;;;;2.65;2.30;;;;;;;;;;5020784;28;20212;-74
2023/08/31 00:25:48;;;;;;;2.15;1.95;;;;;;;;;;5024389;28;20733;-73
2023/08/31 00:28:18;;;;;;;1.95;1.83;;;;;;;;;;5021837;28;20298;-74
2023/08/31 00:30:46;;;;;;;2.75;2.22;;;;;;;;;;5029619;28;20778;-72
2023/08/31 00:33:14;;;;;;;2.40;2.20;;;;;;;;;;5031739;28;20207;-72
2023/08/31 00:35:43;;;;;;;2.00;1.90;;;;;;;;;;5031867;28;20210;-74
2023/08/31 00:38:11;;;;;;;1.92;1.80;;;;;;;;;;5032073;28;20268;-74
2023/08/31 00:40:41;;;;;;;3.40;3.10;;;;;;;;;;5028223;28;20255;-74
2023/08/31 00:43:08;;;;;;;2.58;2.00;;;;;;;;;;5011457;28;20199;-73
2023/08/31 00:45:36;;;;;;;2.08;1.98;;;;;;;;;;5025060;28;20217;-73
2023/08/31 00:48:03;;;;;;;2.38;2.17;;;;;;;;;;5031125;28;20207;-73
2023/08/31 00:50:31;;;;;;;2.47;2.28;;;;;;;;;;5011596;28;20235;-77
2023/08/31 00:52:59;;;;;;;2.72;2.53;;;;;;;;;;5013899;28;20200;-78
2023/08/31 00:55:26;;;;;;;2.30;2.20;;;;;;;;;;5006872;28;20211;-78
2023/08/31 00:57:55;;;;;;;2.00;1.90;;;;;;;;;;5011472;28;20195;-77
2023/08/31 01:00:28;;;;;;;2.55;2.10;;;;;;;;;;5000690;28;20241;-78
2023/08/31 01:03:13;;;;;;;2.35;2.13;;;;;;;;;;5013889;28;20544;-78
2023/08/31 01:06:01;;;;;;;2.97;2.47;;;;;;;;;;5009639;28;20246;-76
2023/08/31 01:08:53;;;;;;;2.30;2.20;;;;;;;;;;5002890;28;20214;-77
2023/08/31 01:11:56;;;;;;;2.67;2.47;;;;;;;;;;4993881;28;20241;-78
2023/08/31 01:14:24;;;;;;;2.70;2.50;;;;;;;;;;4942620;28;20215;-76
2023/08/31 01:16:52;;;;;;;3.92;2.60;;;;;;;;;;4991860;28;20206;-77
2023/08/31 01:19:30;;;;;;;2.97;2.70;;;;;;;;;;5008490;28;20203;-77
2023/08/31 01:22:00;;;;;;;2.60;2.40;;;;;;;;;;5010355;28;20894;-77
2023/08/31 01:24:28;;;;;;;2.80;2.60;;;;;;;;;;5001630;28;20199;-76
2023/08/31 01:26:55;;;;;;;2.70;2.50;;;;;;;;;;5009974;28;20211;-77
2023/08/31 01:29:23;;;;;;;3.25;2.42;;;;;;;;;;5000878;28;20211;-78
2023/08/31 01:31:50;;;;;;;2.80;2.60;;;;;;;;;;4999485;28;20227;-78
2023/08/31 01:34:36;;;;;;;3.90;2.58;;;;;;;;;;4998917;28;20206;-77
2023/08/31 01:37:08;;;;;;;3.28;2.53;;;;;;;;;;5004935;28;20656;-77
2023/08/31 01:39:43;;;;;;;3.60;3.30;;;;;;;;;;5002083;28;20210;-76
2023/08/31 01:42:11;;;;;;;3.05;2.78;;;;;;;;;;5007678;28;20577;-78
2023/08/31 01:44:39;;;;;;;3.25;2.95;;;;;;;;;;5005096;28;20984;-78
2023/08/31 01:47:07;;;;;;;3.40;3.10;;;;;;;;;;5006928;28;20233;-77
2023/08/31 01:49:38;;;;;;;2.92;2.72;;;;;;;;;;5002681;28;20855;-77
2023/08/31 01:52:06;;;;;;;2.60;2.40;;;;;;;;;;5009476;28;20230;-76
2023/08/31 01:54:33;;;;;;;3.00;2.80;;;;;;;;;;5008607;28;20277;-77
2023/08/31 01:57:02;;;;;;;3.10;2.90;;;;;;;;;;5002434;28;20819;-76
2023/08/31 01:59:30;;;;;;;3.88;2.50;;;;;;;;;;5008196;28;20199;-75
2023/08/31 02:01:58;;;;;;;2.67;2.47;;;;;;;;;;5008917;28;20287;-76
2023/08/31 02:04:25;;;;;;;3.20;2.78;;;;;;;;;;5007673;28;20211;-76
2023/08/31 02:06:52;;;;;;;3.20;2.90;;;;;;;;;;5005000;28;20208;-77
2023/08/31 02:09:20;;;;;;;4.10;2.63;;;;;;;;;;4999674;28;20376;-77
2023/08/31 02:11:48;;;;;;;3.05;2.80;;;;;;;;;;5004442;28;20708;-76
2023/08/31 02:14:15;;;;;;;4.22;2.78;;;;;;;;;;5000578;28;20229;-80
2023/08/31 02:16:43;;;;;;;3.35;2.63;;;;;;;;;;5002569;28;20336;-76
2023/08/31 02:19:10;;;;;;;3.03;2.83;;;;;;;;;;5003226;28;20202;-78
2023/08/31 02:21:38;;;;;;;3.60;2.65;;;;;;;;;;5001382;28;20230;-78
2023/08/31 02:24:05;;;;;;;5.75;2.55;;;;;;;;;;5004334;28;20211;-78
2023/08/31 02:26:33;;;;;;;3.03;2.50;;;;;;;;;;4999441;28;20843;-76
2023/08/31 02:29:01;;;;;;;4.22;2.83;;;;;;;;;;5007867;28;20214;-77
2023/08/31 02:31:28;;;;;;;3.47;2.83;;;;;;;;;;4994190;28;21527;-76
2023/08/31 02:33:55;;;;;;;3.70;2.85;;;;;;;;;;5006955;28;20210;-75
2023/08/31 02:36:23;;;;;;;2.95;2.75;;;;;;;;;;5003302;28;20203;-76
2023/08/31 02:38:50;;;;;;;5.28;3.78;;;;;;;;;;5002493;28;20207;-77
2023/08/31 02:41:19;;;;;;;4.45;2.75;;;;;;;;;;5002635;28;20707;-77
2023/08/31 02:43:46;;;;;;;2.97;2.70;;;;;;;;;;5008963;28;20203;-77
2023/08/31 02:46:14;;;;;;;3.28;2.78;;;;;;;;;;5010682;28;20203;-76
2023/08/31 02:48:41;;;;;;;3.20;2.90;;;;;;;;;;5002134;28;20724;-77
2023/08/31 02:51:09;;;;;;;3.00;2.80;;;;;;;;;;5000322;28;20719;-78
2023/08/31 02:53:36;;;;;;;3.13;2.80;;;;;;;;;;5005923;28;20204;-77
2023/08/31 02:56:03;;;;;;;3.10;2.75;;;;;;;;;;5003442;28;20206;-75
2023/08/31 02:58:31;;;;;;;3.33;3.03;;;;;;;;;;4997686;28;20212;-76
2023/08/31 03:01:11;;;;;;;5.25;3.33;;;;;;;;;;5000612;28;20306;-76
2023/08/31 03:03:42;;;;;;;3.72;3.00;;;;;;;;;;5020710;28;20257;-77
2023/08/31 03:06:10;;;;;;;3.60;3.30;;;;;;;;;;5001555;28;20206;-75
2023/08/31 03:08:37;;;;;;;17.23;10.52;;;;;;;;;;5021627;28;20207;-77
2023/08/31 03:11:05;;;;;;;7.50;5.60;;;;;;;;;;5010995;28;20230;-79
2023/08/31 03:13:33;;;;;;;4.03;3.35;;;;;;;;;;5003459;28;20218;-77
2023/08/31 03:16:01;;;;;;;6.20;3.13;;;;;;;;;;5001102;28;20209;-77
2023/08/31 03:18:29;;;;;;;3.80;3.28;;;;;;;;;;4998878;28;20199;-78
2023/08/31 03:20:56;;;;;;;3.45;3.15;;;;;;;;;;5007093;28;20234;-76
2023/08/31 03:23:24;;;;;;;3.53;3.03;;;;;;;;;;5001773;28;20215;-76
2023/08/31 03:25:51;;;;;;;4.15;3.70;;;;;;;;;;5008844;28;20673;-77
2023/08/31 03:28:18;;;;;;;5.25;3.83;;;;;;;;;;5009831;28;20268;-77
2023/08/31 03:30:46;;;;;;;3.90;3.45;;;;;;;;;;5004875;28;20244;-77
2023/08/31 03:33:13;;;;;;;3.50;3.08;;;;;;;;;;5000287;28;20194;-76
2023/08/31 03:35:41;;;;;;;3.83;3.30;;;;;;;;;;5006933;28;20203;-77
2023/08/31 03:38:10;;;;;;;4.20;3.17;;;;;;;;;;5003964;28;20212;-77
2023/08/31 03:40:37;;;;;;;3.85;3.55;;;;;;;;;;5003383;28;20231;-77
2023/08/31 03:43:04;;;;;;;5.55;3.50;;;;;;;;;;5001986;28;20218;-75
2023/08/31 03:45:31;;;;;;;4.10;3.50;;;;;;;;;;5018913;28;20250;-79
2023/08/31 03:47:59;;;;;;;3.60;3.30;;;;;;;;;;4997696;28;20206;-77
2023/08/31 03:50:26;;;;;;;4.97;3.33;;;;;;;;;;5002540;28;20276;-77
2023/08/31 03:52:55;;;;;;;5.38;3.70;;;;;;;;;;5006141;28;20668;-78
2023/08/31 03:55:22;;;;;;;4.00;3.60;;;;;;;;;;5004855;28;20207;-77
2023/08/31 03:57:49;;;;;;;6.45;3.90;;;;;;;;;;5007260;28;20261;-76
2023/08/31 04:00:17;;;;;;;4.85;3.42;;;;;;;;;;4996543;28;20303;-76
2023/08/31 04:02:44;;;;;;;5.13;3.47;;;;;;;;;;4997961;28;20207;-78
2023/08/31 04:05:14;;;;;;;5.85;4.43;;;;;;;;;;4996689;28;20207;-78
2023/08/31 04:07:42;;;;;;;4.47;4.03;;;;;;;;;;5000144;28;21855;-79
2023/08/31 04:10:09;;;;;;;4.28;3.83;;;;;;;;;;4999433;28;20237;-78
2023/08/31 04:12:37;;;;;;;5.10;4.20;;;;;;;;;;4990708;28;20214;-78
2023/08/31 04:15:05;;;;;;;6.75;4.30;;;;;;;;;;5003627;28;20203;-79
2023/08/31 04:17:32;;;;;;;5.18;4.22;;;;;;;;;;4997257;28;20250;-77
2023/08/31 04:20:00;;;;;;;6.73;4.30;;;;;;;;;;5005528;28;20218;-75
2023/08/31 04:22:27;;;;;;;6.00;5.22;;;;;;;;;;4987825;28;20484;-76
2023/08/31 04:24:55;;;;;;;5.18;4.63;;;;;;;;;;5003426;28;20214;-76
2023/08/31 04:27:22;;;;;;;5.93;4.60;;;;;;;;;;5011915;28;20210;-77
2023/08/31 04:29:49;;;;;;;5.57;4.20;;;;;;;;;;5003714;28;20226;-78
2023/08/31 04:32:17;;;;;;;5.90;4.20;;;;;;;;;;5002966;28;21393;-77
2023/08/31 04:34:44;;;;;;;7.13;4.13;;;;;;;;;;5004573;28;20261;-77
2023/08/31 04:37:11;;;;;;;4.45;4.00;;;;;;;;;;5002465;28;20680;-78
2023/08/31 04:39:38;;;;;;;5.32;4.05;;;;;;;;;;5011828;28;20207;-75
2023/08/31 04:42:06;;;;;;;4.97;4.50;;;;;;;;;;5011773;28;20657;-78
2023/08/31 04:44:33;;;;;;;6.38;4.78;;;;;;;;;;5006590;28;20203;-75
2023/08/31 04:47:01;;;;;;;5.05;3.90;;;;;;;;;;4997707;28;20215;-77
2023/08/31 04:49:28;;;;;;;5.35;4.25;;;;;;;;;;5004887;28;21318;-76
2023/08/31 04:51:55;;;;;;;5.32;3.83;;;;;;;;;;5015377;28;20234;-75
2023/08/31 04:54:23;;;;;;;6.88;4.55;;;;;;;;;;5005716;28;20654;-75
2023/08/31 04:56:50;;;;;;;5.38;3.92;;;;;;;;;;5010882;28;20238;-77
2023/08/31 04:59:17;;;;;;;5.95;3.88;;;;;;;;;;4998386;28;20214;-77
2023/08/31 05:01:45;;;;;;;5.13;4.35;;;;;;;;;;5007884;28;20222;-75
2023/08/31 05:04:12;;;;;;;6.53;4.30;;;;;;;;;;5019179;28;20210;-75
2023/08/31 05:06:39;;;;;;;6.70;4.38;;;;;;;;;;5011821;28;20203;-76
2023/08/31 05:09:07;;;;;;;5.78;3.97;;;;;;;;;;5013852;28;20219;-77
2023/08/31 05:11:34;;;;;;;7.03;4.03;;;;;;;;;;5007256;28;20223;-77
2023/08/31 05:14:02;;;;;;;4.53;4.07;;;;;;;;;;5010280;28;20590;-76
2023/08/31 05:16:29;;;;;;;4.63;4.15;;;;;;;;;;5009185;28;20203;-75
2023/08/31 05:18:56;;;;;;;6.93;4.93;;;;;;;;;;5009249;28;20211;-76
2023/08/31 05:21:23;;;;;;;5.60;4.07;;;;;;;;;;5011916;28;20230;-77
2023/08/31 05:23:51;;;;;;;4.70;4.13;;;;;;;;;;5010320;28;20240;-76
2023/08/31 05:26:18;;;;;;;5.28;4.25;;;;;;;;;;5008181;28;20337;-77
2023/08/31 05:28:46;;;;;;;4.38;3.97;;;;;;;;;;5000295;28;20213;-75
2023/08/31 05:31:13;;;;;;;5.32;4.22;;;;;;;;;;5005858;28;20597;-78
2023/08/31 05:33:40;;;;;;;5.20;3.83;;;;;;;;;;5013032;28;20855;-74
2023/08/31 05:36:07;;;;;;;6.32;3.95;;;;;;;;;;5009246;28;20677;-77
2023/08/31 05:38:35;;;;;;;3.90;3.60;;;;;;;;;;5000361;28;20218;-75
2023/08/31 05:41:06;;;;;;;5.18;3.92;;;;;;;;;;5004685;28;20820;-76
2023/08/31 05:43:34;;;;;;;4.72;3.75;;;;;;;;;;5008418;28;20213;-77
2023/08/31 05:46:02;;;;;;;5.30;3.75;;;;;;;;;;5019674;28;20218;-76
2023/08/31 05:48:31;;;;;;;4.22;3.53;;;;;;;;;;5013493;28;20220;-77
2023/08/31 05:50:58;;;;;;;4.97;4.00;;;;;;;;;;5007536;28;20237;-77
2023/08/31 05:53:25;;;;;;;7.75;3.90;;;;;;;;;;4999064;28;20211;-76
2023/08/31 05:55:57;;;;;;;4.97;3.65;;;;;;;;;;5008498;28;20203;-75
2023/08/31 05:58:24;;;;;;;4.43;3.65;;;;;;;;;;5006064;28;20302;-77
2023/08/31 06:00:51;;;;;;;6.82;3.88;;;;;;;;;;4999130;28;20304;-76
2023/08/31 06:03:19;;;;;;;4.15;3.78;;;;;;;;;;5006322;28;20211;-76
2023/08/31 06:05:46;;;;;;;3.83;3.40;;;;;;;;;;5004580;28;20206;-76
2023/08/31 06:08:14;;;;;;;7.18;4.00;;;;;;;;;;5004044;28;20204;-76
2023/08/31 06:10:41;;;;;;;5.18;3.55;;;;;;;;;;5004030;28;20234;-76
2023/08/31 06:13:09;;;;;;;4.40;3.80;;;;;;;;;;4999734;28;20688;-76
2023/08/31 06:15:36;;;;;;;3.70;3.40;;;;;;;;;;5009149;28;20225;-76
2023/08/31 06:18:04;;;;;;;4.90;3.97;;;;;;;;;;5005393;28;20264;-76
2023/08/31 06:20:31;;;;;;;7.68;3.70;;;;;;;;;;5004141;28;20227;-74
2023/08/31 06:23:00;;;;;;;4.40;3.60;;;;;;;;;;5008550;28;20207;-76
2023/08/31 06:25:28;;;;;;;3.63;3.33;;;;;;;;;;4999812;28;20211;-77
2023/08/31 06:27:55;;;;;;;4.35;3.20;;;;;;;;;;5005042;28;20286;-77
2023/08/31 06:30:23;;;;;;;4.30;2.95;;;;;;;;;;5001810;28;20598;-76
2023/08/31 06:32:50;;;;;;;5.30;3.35;;;;;;;;;;5004880;28;20226;-75
2023/08/31 06:35:17;;;;;;;4.60;3.55;;;;;;;;;;5007206;28;20284;-77
2023/08/31 06:37:46;;;;;;;5.60;3.38;;;;;;;;;;5003903;28;20308;-77
2023/08/31 06:40:14;;;;;;;4.95;4.05;;;;;;;;;;5009675;28;20219;-76
2023/08/31 06:42:41;;;;;;;6.68;3.85;;;;;;;;;;5003694;28;20231;-77
2023/08/31 06:45:09;;;;;;;9.65;3.47;;;;;;;;;;5008736;28;20203;-76
2023/08/31 06:47:36;;;;;;;7.75;3.42;;;;;;;;;;5008912;28;20326;-75
2023/08/31 06:50:04;;;;;;;3.92;3.10;;;;;;;;;;5019745;28;20773;-76
2023/08/31 06:52:31;;;;;;;6.68;2.83;;;;;;;;;;5002165;28;20223;-77
2023/08/31 06:54:59;;;;;;;5.80;2.95;;;;;;;;;;5007583;28;20218;-76
2023/08/31 06:57:28;;;;;;;5.60;3.25;;;;;;;;;;5028420;28;20241;-76
2023/08/31 06:59:57;;;;;;;5.18;3.00;;;;;;;;;;5011904;28;20222;-77
2023/08/31 07:02:26;;;;;;;6.50;3.10;;;;;;;;;;5004562;28;20214;-75
2023/08/31 07:04:53;;;;;;;2.83;2.58;;;;;;;;;;5002651;28;20880;-76
2023/08/31 07:07:21;;;;;;;6.18;3.33;;;;;;;;;;5003241;28;20591;-76
2023/08/31 07:09:48;;;;;;;4.32;3.05;;;;;;;;;;5009445;28;20206;-76
2023/08/31 07:12:16;;;;;;;4.97;3.13;;;;;;;;;;5000834;28;20696;-77
2023/08/31 07:14:44;;;;;;;4.75;2.70;;;;;;;;;;5005099;28;20215;-76
2023/08/31 07:17:12;;;;;;;6.57;3.45;;;;;;;;;;5010087;28;20576;-77
2023/08/31 07:19:40;;;;;;;5.10;3.45;;;;;;;;;;5020402;28;20652;-78
2023/08/31 07:22:09;;;;;;;28.15;15.07;;;;;;;;;;5005876;28;20215;-76
2023/08/31 07:24:38;;;;;;;22.90;11.07;;;;;;;;;;5000638;28;20207;-76
2023/08/31 07:27:06;;;;;;;7.93;3.10;;;;;;;;;;5003198;28;22207;-76
2023/08/31 07:29:34;;;;;;;6.68;2.90;;;;;;;;;;5009088;28;20210;-77
2023/08/31 07:32:03;;;;;;;5.80;3.05;;;;;;;;;;5013932;28;20276;-77
2023/08/31 07:34:34;;;;;;;2.83;2.47;;;;;;;;;;5013166;28;20829;-76
2023/08/31 07:37:02;;;;;;;5.22;2.42;;;;;;;;;;5010609;28;20210;-78
2023/08/31 07:39:30;;;;;;;5.45;2.80;;;;;;;;;;5004962;28;21149;-76
2023/08/31 07:41:59;;;;;;;4.63;2.10;;;;;;;;;;5013180;28;20639;-77
2023/08/31 07:44:26;;;;;;;5.35;3.55;;;;;;;;;;5013615;28;20217;-78
2023/08/31 07:46:54;;;;;;;5.78;3.15;;;;;;;;;;5015965;28;20631;-77
2023/08/31 07:49:21;;;;;;;7.47;2.47;;;;;;;;;;5014522;28;20207;-76
2023/08/31 07:51:49;;;;;;;5.22;2.10;;;;;;;;;;5006824;28;20237;-75
2023/08/31 07:54:23;;;;;;;3.97;2.40;;;;;;;;;;5018029;28;20210;-76
2023/08/31 07:56:51;;;;;;;3.00;2.17;;;;;;;;;;5014247;28;20202;-77
2023/08/31 07:59:19;;;;;;;2.83;2.28;;;;;;;;;;5009640;28;20207;-76
2023/08/31 08:01:48;;;;;;;2.90;2.00;;;;;;;;;;5022520;28;20238;-75
2023/08/31 08:04:19;;;;;;;3.10;2.03;;;;;;;;;;5024926;28;20268;-77
2023/08/31 08:06:46;;;;;;;7.15;2.30;;;;;;;;;;5020098;28;20203;-75
2023/08/31 08:09:13;;;;;;;3.30;2.05;;;;;;;;;;5017729;28;20551;-76
2023/08/31 08:11:42;;;;;;;4.07;2.88;;;;;;;;;;5020498;28;20473;-77
2023/08/31 08:14:09;;;;;;;5.13;3.35;;;;;;;;;;5010161;28;20221;-76
2023/08/31 08:16:37;;;;;;;4.25;2.15;;;;;;;;;;5015242;28;20203;-77
2023/08/31 08:19:06;;;;;;;5.60;2.40;;;;;;;;;;5017829;28;20243;-77
2023/08/31 08:21:33;;;;;;;3.95;2.60;;;;;;;;;;5011388;28;20257;-76
2023/08/31 08:24:00;;;;;;;4.10;2.80;;;;;;;;;;5015413;28;20217;-77
2023/08/31 08:26:28;;;;;;;8.35;4.63;;;;;;;;;;5013950;28;20481;-75
2023/08/31 08:28:55;;;;;;;7.15;4.82;;;;;;;;;;5010254;28;20343;-78
2023/08/31 08:31:24;;;;;;;9.10;5.10;;;;;;;;;;5020587;28;20712;-76
2023/08/31 08:33:52;;;;;;;9.30;5.15;;;;;;;;;;5001343;28;20268;-76
2023/08/31 08:36:19;;;;;;;2.58;2.13;;;;;;;;;;5010996;28;20207;-75
2023/08/31 08:38:47;;;;;;;4.10;2.20;;;;;;;;;;5000673;28;20194;-77
2023/08/31 08:41:17;;;;;;;2.50;2.03;;;;;;;;;;5022097;28;20692;-73
2023/08/31 08:43:46;;;;;;;2.78;2.00;;;;;;;;;;5026816;28;20198;-74
2023/08/31 08:46:13;;;;;;;3.85;2.10;;;;;;;;;;5020847;28;20685;-73
2023/08/31 08:48:41;;;;;;;4.10;2.00;;;;;;;;;;5020909;28;20256;-71
2023/08/31 08:51:10;;;;;;;4.43;2.20;;;;;;;;;;5014505;28;20237;-74
2023/08/31 08:53:38;;;;;;;4.63;1.90;;;;;;;;;;5014365;28;21176;-73
2023/08/31 08:56:06;;;;;;;5.32;2.45;;;;;;;;;;5012015;28;20207;-73
2023/08/31 08:58:34;;;;;;;5.43;2.88;;;;;;;;;;5013000;28;20290;-73
2023/08/31 09:01:02;;;;;;;3.72;1.98;;;;;;;;;;5017362;28;20250;-74
2023/08/31 09:03:29;;;;;;;3.10;2.00;;;;;;;;;;5019161;28;20218;-73
2023/08/31 09:06:01;;;;;;;5.15;2.00;;;;;;;;;;5017393;28;20566;-75
2023/08/31 09:08:32;;;;;;;4.80;2.22;;;;;;;;;;5013218;28;20301;-75
2023/08/31 09:11:01;;;;;;;5.07;2.00;;;;;;;;;;5008649;28;20226;-75
2023/08/31 09:13:29;;;;;;;5.88;2.10;;;;;;;;;;5011963;28;20238;-77
2023/08/31 09:15:59;;;;;;;2.95;1.85;;;;;;;;;;5010656;28;20859;-75
2023/08/31 09:18:29;;;;;;;3.03;1.95;;;;;;;;;;5002974;28;20213;-73
2023/08/31 09:20:57;;;;;;;2.10;1.85;;;;;;;;;;5008129;28;20731;-75
2023/08/31 09:23:25;;;;;;;3.42;2.08;;;;;;;;;;5005746;28;20211;-74
2023/08/31 09:25:54;;;;;;;2.92;2.03;;;;;;;;;;5021529;28;20207;-76
2023/08/31 09:28:26;;;;;;;3.53;2.10;;;;;;;;;;5014750;28;20210;-75
2023/08/31 09:30:54;;;;;;;5.43;2.22;;;;;;;;;;5006644;28;20235;-73
2023/08/31 09:33:21;;;;;;;5.88;2.00;;;;;;;;;;5000501;28;20288;-74
2023/08/31 09:35:53;;;;;;;4.50;2.17;;;;;;;;;;5002953;28;20217;-74
2023/08/31 09:38:20;;;;;;;4.28;2.10;;;;;;;;;;5011108;28;20292;-74
2023/08/31 09:40:50;;;;;;;4.28;2.28;;;;;;;;;;5013584;28;20680;-76
2023/08/31 09:43:24;;;;;;;2.95;1.85;;;;;;;;;;5018088;28;20211;-75
2023/08/31 09:45:51;;;;;;;5.00;2.28;;;;;;;;;;5011456;28;20568;-75
2023/08/31 09:48:19;;;;;;;4.28;1.92;;;;;;;;;;5010376;28;20211;-74
2023/08/31 09:50:50;;;;;;;6.07;3.00;;;;;;;;;;5006425;28;20233;-74
2023/08/31 09:53:19;;;;;;;2.25;2.05;;;;;;;;;;5025070;28;20226;-74
2023/08/31 09:55:51;;;;;;;2.65;2.03;;;;;;;;;;5010520;28;20226;-73
2023/08/31 09:58:19;;;;;;;6.53;2.20;;;;;;;;;;5001289;28;20204;-74
2023/08/31 10:00:48;;;;;;;2.38;1.92;;;;;;;;;;5007986;28;20227;-74
2023/08/31 10:03:16;;;;;;;4.88;2.40;;;;;;;;;;4994717;28;20211;-73
2023/08/31 10:05:46;;;;;;;3.53;2.10;;;;;;;;;;5009980;28;20206;-74
2023/08/31 10:08:14;;;;;;;5.20;2.22;;;;;;;;;;4999825;28;20203;-75
2023/08/31 10:10:43;;;;;;;3.72;2.30;;;;;;;;;;4999812;28;20227;-75
2023/08/31 10:13:11;;;;;;;3.78;2.10;;;;;;;;;;5013727;28;20222;-73
2023/08/31 10:15:42;;;;;;;3.15;1.88;;;;;;;;;;5004240;28;20199;-74
2023/08/31 10:18:09;;;;;;;4.50;2.40;;;;;;;;;;5001481;28;20319;-74
2023/08/31 10:20:36;;;;;;;3.97;2.40;;;;;;;;;;5004847;28;20223;-75
2023/08/31 10:23:06;;;;;;;5.50;2.05;;;;;;;;;;5004695;28;20943;-73
2023/08/31 10:25:53;;;;;;;3.25;2.20;;;;;;;;;;5002313;28;20207;-75
2023/08/31 10:28:22;;;;;;;5.38;2.38;;;;;;;;;;4990138;28;20744;-75
2023/08/31 10:31:06;;;;;;;3.85;2.15;;;;;;;;;;4997739;28;20922;-74
2023/08/31 10:33:45;;;;;;;5.50;2.38;;;;;;;;;;5022646;28;20230;-76
2023/08/31 10:36:17;;;;;;;4.32;1.92;;;;;;;;;;5007480;28;20195;-75
2023/08/31 10:38:46;;;;;;;4.97;2.20;;;;;;;;;;5006268;28;20199;-75
2023/08/31 10:41:13;;;;;;;3.13;2.00;;;;;;;;;;5006535;28;20854;-74
2023/08/31 10:43:50;;;;;;;6.38;2.20;;;;;;;;;;5002403;28;20366;-75
2023/08/31 10:46:19;;;;;;;4.18;2.13;;;;;;;;;;4997495;28;20198;-78
2023/08/31 10:48:55;;;;;;;2.20;1.92;;;;;;;;;;5009803;28;20203;-77
2023/08/31 10:51:24;;;;;;;3.67;2.03;;;;;;;;;;5010500;28;20226;-77
2023/08/31 10:53:52;;;;;;;6.53;3.33;;;;;;;;;;5009587;28;20709;-76
2023/08/31 10:56:19;;;;;;;5.65;2.35;;;;;;;;;;5014490;28;20211;-76
2023/08/31 10:59:16;;;;;;;2.58;2.30;;;;;;;;;;5032686;28;20210;-76
2023/08/31 11:01:57;;;;;;;3.95;1.90;;;;;;;;;;5000982;28;20218;-77
2023/08/31 11:04:27;;;;;;;2.63;2.00;;;;;;;;;;5009701;28;20209;-76
2023/08/31 11:07:14;;;;;;;3.70;1.98;;;;;;;;;;5011369;28;20203;-79
2023/08/31 11:09:42;;;;;;;2.35;1.85;;;;;;;;;;5011040;28;20294;-77
2023/08/31 11:12:09;;;;;;;5.97;2.10;;;;;;;;;;5004491;28;20642;-77
2023/08/31 11:14:37;;;;;;;3.03;2.10;;;;;;;;;;5009396;28;20207;-78
2023/08/31 11:17:05;;;;;;;6.03;2.25;;;;;;;;;;5007162;28;20199;-75
2023/08/31 11:19:34;;;;;;;5.65;2.67;;;;;;;;;;5010137;28;20273;-76
2023/08/31 11:22:02;;;;;;;3.42;2.00;;;;;;;;;;5006409;28;20211;-78
2023/08/31 11:24:31;;;;;;;2.70;2.20;;;;;;;;;;5009646;28;20202;-79
2023/08/31 11:27:03;;;;;;;7.63;3.42;;;;;;;;;;5005721;28;20727;-78
2023/08/31 11:29:31;;;;;;;5.22;2.03;;;;;;;;;;5012646;28;20210;-76
2023/08/31 11:32:02;;;;;;;4.35;2.00;;;;;;;;;;5011555;28;20248;-75
2023/08/31 11:34:29;;;;;;;2.30;1.90;;;;;;;;;;5013791;28;20210;-76
2023/08/31 11:36:57;;;;;;;4.38;1.77;;;;;;;;;;5012027;28;20548;-76
2023/08/31 11:39:24;;;;;;;3.85;1.85;;;;;;;;;;5008455;28;20203;-75
2023/08/31 11:41:51;;;;;;;3.58;1.80;;;;;;;;;;5010241;28;20219;-79
2023/08/31 11:44:19;;;;;;;3.42;1.80;;;;;;;;;;5005942;28;20662;-78
2023/08/31 11:46:49;;;;;;;3.28;1.77;;;;;;;;;;5005936;28;20226;-77
2023/08/31 11:49:20;;;;;;;3.15;1.70;;;;;;;;;;5005510;28;20734;-78
2023/08/31 11:51:48;;;;;;;5.03;2.15;;;;;;;;;;5008037;28;20219;-76
2023/08/31 11:54:18;;;;;;;4.35;2.05;;;;;;;;;;5004719;28;20219;-77
2023/08/31 11:56:50;;;;;;;4.25;2.05;;;;;;;;;;5006147;28;21325;-79
2023/08/31 11:59:22;;;;;;;2.38;1.80;;;;;;;;;;5002774;28;20207;-79
2023/08/31 12:01:52;;;;;;;3.05;2.20;;;;;;;;;;5009588;28;20247;-78
2023/08/31 12:04:22;;;;;;;3.63;2.15;;;;;;;;;;5002617;28;21329;-77
2023/08/31 12:06:51;;;;;;;4.57;1.77;;;;;;;;;;5004701;28;23109;-77
2023/08/31 12:09:18;;;;;;;2.65;1.75;;;;;;;;;;5011782;28;20222;-78
2023/08/31 12:11:52;;;;;;;2.55;1.58;;;;;;;;;;5008656;28;20231;-76
2023/08/31 12:14:26;;;;;;;4.88;2.05;;;;;;;;;;5012194;28;20253;-77
2023/08/31 12:17:00;;;;;;;3.78;1.92;;;;;;;;;;5010657;28;20273;-77
2023/08/31 12:19:29;;;;;;;3.35;1.83;;;;;;;;;;5005694;28;20272;-76
2023/08/31 12:21:56;;;;;;;3.08;1.77;;;;;;;;;;5010658;28;20246;-76
2023/08/31 12:24:23;;;;;;;3.90;1.88;;;;;;;;;;5003400;28;20204;-75
2023/08/31 12:26:50;;;;;;;2.97;1.95;;;;;;;;;;5015863;28;20265;-76
2023/08/31 12:29:18;;;;;;;2.63;1.83;;;;;;;;;;5009052;28;20720;-77
2023/08/31 12:31:45;;;;;;;4.88;2.13;;;;;;;;;;5010687;28;20832;-78
2023/08/31 12:34:12;;;;;;;5.20;1.98;;;;;;;;;;5008267;28;20235;-76
2023/08/31 12:36:41;;;;;;;3.05;2.08;;;;;;;;;;5026616;28;20214;-76
2023/08/31 12:39:12;;;;;;;1.90;1.70;;;;;;;;;;5009569;28;20214;-77
2023/08/31 12:41:40;;;;;;;4.20;2.17;;;;;;;;;;5017430;28;20308;-76
2023/08/31 12:44:09;;;;;;;4.65;2.30;;;;;;;;;;5019286;28;20209;-77
2023/08/31 12:46:36;;;;;;;4.22;2.58;;;;;;;;;;5013067;28;20688;-77
2023/08/31 12:49:04;;;;;;;2.72;1.98;;;;;;;;;;5013751;28;20203;-76
2023/08/31 12:51:31;;;;;;;4.95;3.05;;;;;;;;;;5030961;28;20692;-76
2023/08/31 12:53:59;;;;;;;4.53;1.80;;;;;;;;;;5007434;28;20227;-76
2023/08/31 12:56:28;;;;;;;3.35;2.00;;;;;;;;;;4999315;28;20234;-76
2023/08/31 12:58:55;;;;;;;2.80;2.08;;;;;;;;;;4992677;28;21203;-76
2023/08/31 13:01:27;;;;;;;2.60;1.88;;;;;;;;;;4989875;28;20234;-76
2023/08/31 13:03:57;;;;;;;3.90;2.17;;;;;;;;;;5004980;28;20262;-76
2023/08/31 13:06:26;;;;;;;3.58;1.95;;;;;;;;;;5008320;28;20229;-77
2023/08/31 13:08:55;;;;;;;3.63;1.90;;;;;;;;;;5006712;28;20215;-77
2023/08/31 13:11:23;;;;;;;2.67;2.00;;;;;;;;;;5013170;28;20238;-78
2023/08/31 13:13:51;;;;;;;4.97;2.00;;;;;;;;;;5016190;28;20614;-76
2023/08/31 13:16:21;;;;;;;2.50;1.83;;;;;;;;;;5011401;28;20213;-76
2023/08/31 13:18:50;;;;;;;2.70;1.88;;;;;;;;;;5011979;28;20233;-77
2023/08/31 13:21:19;;;;;;;4.63;1.92;;;;;;;;;;5005044;28;20249;-78
2023/08/31 13:23:47;;;;;;;5.28;2.10;;;;;;;;;;5027702;28;20564;-76
2023/08/31 13:26:14;;;;;;;2.53;1.90;;;;;;;;;;5013094;28;20298;-78
2023/08/31 13:28:43;;;;;;;3.50;2.00;;;;;;;;;;5013608;28;20203;-78
2023/08/31 13:31:12;;;;;;;2.90;1.77;;;;;;;;;;5009700;28;20230;-78
2023/08/31 13:33:41;;;;;;;2.53;2.00;;;;;;;;;;5003775;28;20214;-77
2023/08/31 13:36:09;;;;;;;4.43;2.00;;;;;;;;;;5016001;28;20284;-77
2023/08/31 13:38:36;;;;;;;2.97;2.00;;;;;;;;;;5013302;28;20211;-78
2023/08/31 13:41:04;;;;;;;5.30;3.03;;;;;;;;;;5021586;28;20707;-76
2023/08/31 13:43:32;;;;;;;4.78;2.72;;;;;;;;;;5010956;28;20212;-77
2023/08/31 13:46:00;;;;;;;6.22;3.13;;;;;;;;;;5015625;28;20225;-77
2023/08/31 13:48:27;;;;;;;2.53;1.70;;;;;;;;;;5008560;28;20383;-76
2023/08/31 13:50:59;;;;;;;3.10;2.15;;;;;;;;;;5015658;28;20227;-78
2023/08/31 13:53:26;;;;;;;5.00;2.40;;;;;;;;;;5008336;28;20230;-76
2023/08/31 13:55:54;;;;;;;4.63;2.15;;;;;;;;;;5015685;28;20293;-79
2023/08/31 13:58:21;;;;;;;2.60;1.70;;;;;;;;;;5008248;28;20200;-76
2023/08/31 14:00:49;;;;;;;4.50;2.30;;;;;;;;;;5009657;28;20231;-76
2023/08/31 14:03:17;;;;;;;3.13;2.10;;;;;;;;;;5005115;28;20226;-76
2023/08/31 14:05:48;;;;;;;2.75;1.92;;;;;;;;;;5012112;28;20213;-75
2023/08/31 14:08:16;;;;;;;3.85;2.30;;;;;;;;;;5006783;28;20255;-74
2023/08/31 14:10:43;;;;;;;2.17;1.70;;;;;;;;;;5002961;28;20653;-76
2023/08/31 14:13:11;;;;;;;2.65;1.83;;;;;;;;;;5021419;28;20230;-74
2023/08/31 14:15:45;;;;;;;4.32;2.28;;;;;;;;;;5006911;28;20211;-75
2023/08/31 14:18:16;;;;;;;3.55;2.00;;;;;;;;;;5003289;28;20210;-77
2023/08/31 14:20:44;;;;;;;4.97;2.50;;;;;;;;;;5010120;28;20222;-77
2023/08/31 14:23:12;;;;;;;3.63;2.20;;;;;;;;;;5005384;28;20218;-77
2023/08/31 14:25:39;;;;;;;7.82;5.35;;;;;;;;;;5026096;28;20659;-75
2023/08/31 14:28:07;;;;;;;3.40;2.00;;;;;;;;;;5007285;28;20218;-76
2023/08/31 14:30:40;;;;;;;3.30;2.60;;;;;;;;;;5011678;28;20317;-77
2023/08/31 14:33:10;;;;;;;2.78;1.90;;;;;;;;;;5005241;28;20241;-79
2023/08/31 14:35:39;;;;;;;2.30;1.77;;;;;;;;;;5005733;28;20913;-78
2023/08/31 14:38:20;;;;;;;5.10;2.05;;;;;;;;;;5004755;28;20314;-78
2023/08/31 14:40:47;;;;;;;5.80;2.08;;;;;;;;;;5025950;28;20253;-77
2023/08/31 14:43:17;;;;;;;5.00;2.53;;;;;;;;;;5007374;28;20345;-77
2023/08/31 14:45:45;;;;;;;5.63;2.15;;;;;;;;;;5012019;28;20207;-77
2023/08/31 14:48:12;;;;;;;4.13;2.38;;;;;;;;;;5007616;28;20222;-78
2023/08/31 14:50:45;;;;;;;4.13;2.13;;;;;;;;;;5006488;28;20798;-79
2023/08/31 14:53:13;;;;;;;2.58;1.83;;;;;;;;;;5010429;28;20210;-78